Svitzer Sines — CSYI4 — position and weather

sailwx.info

Track history (hours):
 
Tides and Currents Weather Stations Pressure Air Temp Water Temp Dewpoint Dewpoint Depression Visibility Wind Speed Wind Dir Waves Ship Positions

Svitzer Sines

Last reported at 2014-Aug-20 16:33 UTC. Time now 2014-Aug-20 16:37 UTC.
Position N 38°43' W 009°07'.

Length 26 m.

Type: Tug. MMSI: 263601890.

Date/timePositionNaut miles runAvg speedWind from/ knotsBaromVisibWave heightAir tempDewpointWater temp
2014-Aug-20 16:33N 38°43' W 009°07'2 1.8
2014-Aug-20 15:33N 38°42' W 009°09'0 0.5
2014-Aug-20 14:33N 38°42' W 009°10'0 0.0
2014-Aug-20 13:33N 38°42' W 009°10'0 0.0
2014-Aug-20 12:33N 38°42' W 009°10'0 0.0
2014-Aug-20 11:33N 38°42' W 009°10'0 0.0
2014-Aug-20 10:33N 38°42' W 009°10'0 0.0
2014-Aug-20 09:33N 38°42' W 009°10'0 0.0
2014-Aug-20 08:33N 38°42' W 009°10'0 0.0
2014-Aug-20 07:33N 38°42' W 009°10'0 0.0
2014-Aug-20 06:33N 38°42' W 009°10'0 0.5
2014-Aug-20 05:33N 38°42' W 009°10'0 0.5
2014-Aug-20 04:33N 38°42' W 009°10'0 0.0
2014-Aug-20 03:33N 38°42' W 009°10'0 0.0
2014-Aug-20 02:33N 38°42' W 009°10'0 0.0
2014-Aug-20 01:33N 38°42' W 009°10'0 0.0
2014-Aug-20 00:33N 38°42' W 009°10'0 0.0
2014-Aug-19 23:33N 38°42' W 009°10'0 0.0
2014-Aug-19 22:33N 38°42' W 009°10'0 0.0
2014-Aug-19 21:33N 38°42' W 009°10'0 0.0
2014-Aug-19 20:33N 38°42' W 009°10'0 0.0
2014-Aug-19 19:33N 38°42' W 009°10'0 0.0
2014-Aug-19 18:33N 38°42' W 009°10'0 0.0
2014-Aug-19 17:33N 38°42' W 009°10'0 0.0
2014-Aug-19 16:33N 38°42' W 009°10'0 0.0
2014-Aug-19 15:33N 38°42' W 009°10'0 0.0
2014-Aug-19 14:33N 38°42' W 009°10'0 0.0
2014-Aug-19 13:33N 38°42' W 009°10'0 0.0
2014-Aug-19 12:33N 38°42' W 009°10'0 0.3
2014-Aug-19 11:33N 38°42' W 009°10'3 3.4
2014-Aug-19 10:33N 38°44' W 009°06'0 0.2
2014-Aug-19 08:33N 38°44' W 009°06'4 2.1
2014-Aug-19 06:33N 38°42' W 009°10'0 0.1
2014-Aug-19 05:33N 38°41' W 009°11'1 1.0
2014-Aug-19 04:34N 38°42' W 009°10'0 0.0
2014-Aug-19 03:33N 38°42' W 009°10'0 0.0
2014-Aug-19 02:33N 38°42' W 009°10'0 0.0
2014-Aug-19 01:33N 38°42' W 009°10'0 0.0
2014-Aug-19 00:33N 38°42' W 009°10'0 0.0
2014-Aug-18 23:33N 38°42' W 009°10'0 0.0
2014-Aug-18 22:33N 38°42' W 009°10'3 2.9
2014-Aug-18 21:33N 38°44' W 009°06'3 3.1
2014-Aug-18 20:33N 38°42' W 009°10'0 0.3
2014-Aug-18 19:33N 38°42' W 009°10'0 0.0
2014-Aug-18 18:33N 38°42' W 009°10'0 0.0
2014-Aug-18 17:33N 38°42' W 009°10'0 0.0
2014-Aug-18 16:33N 38°42' W 009°10'0 0.0
2014-Aug-18 15:33N 38°42' W 009°10'0 0.0
2014-Aug-18 14:33N 38°42' W 009°10'0 0.0
2014-Aug-18 13:34N 38°42' W 009°10'0 0.0
2014-Aug-18 12:33N 38°42' W 009°10'0 0.2
2014-Aug-18 11:33N 38°42' W 009°09'2 1.9
2014-Aug-18 10:33N 38°41' W 009°12'1 0.8
2014-Aug-18 09:14N 38°41' W 009°13'1 2.1
2014-Aug-18 08:33N 38°41' W 009°11'0 0.5
2014-Aug-18 07:33N 38°41' W 009°12'2 2.0
2014-Aug-18 06:33N 38°42' W 009°10'0 0.0
2014-Aug-18 05:33N 38°42' W 009°10'0 0.0
2014-Aug-18 04:33N 38°42' W 009°10'0 0.0
2014-Aug-18 03:33N 38°42' W 009°10'0 0.0
2014-Aug-18 02:33N 38°42' W 009°10'0 0.0
2014-Aug-18 01:33N 38°42' W 009°10'0 0.0
2014-Aug-18 00:33N 38°42' W 009°10'0 0.0
2014-Aug-17 18:33N 38°42' W 009°10'0 0.0
2014-Aug-17 17:33N 38°42' W 009°10'0 0.0
2014-Aug-17 16:33N 38°42' W 009°10'0 0.0
2014-Aug-17 15:33N 38°42' W 009°10'0 0.0
2014-Aug-17 14:33N 38°42' W 009°10'0 0.0
2014-Aug-17 13:33N 38°42' W 009°10'0 0.0
2014-Aug-17 12:33N 38°42' W 009°10'0 0.0
2014-Aug-17 11:33N 38°42' W 009°10'0 0.0
2014-Aug-17 10:33N 38°42' W 009°10'0 0.0
2014-Aug-17 09:33N 38°42' W 009°10'0 0.0
2014-Aug-17 08:33N 38°42' W 009°10'0 0.0
2014-Aug-17 07:33N 38°42' W 009°10'0 0.0
2014-Aug-17 06:33N 38°42' W 009°10'0 0.0
2014-Aug-17 05:33N 38°42' W 009°10'0 0.0
2014-Aug-17 04:33N 38°42' W 009°10'0 0.0
2014-Aug-17 03:33N 38°42' W 009°10'0 0.0
2014-Aug-17 02:33N 38°42' W 009°10'0 0.0
2014-Aug-17 01:33N 38°42' W 009°10'0 0.0
2014-Aug-17 00:33N 38°42' W 009°10'2 0.5
2014-Aug-16 20:07N 38°43' W 009°07'1 0.6
2014-Aug-16 19:13N 38°42' W 009°07'2 2.9
2014-Aug-16 18:33N 38°42' W 009°10'0 0.0
2014-Aug-16 17:33N 38°42' W 009°10'0 0.0
2014-Aug-16 16:33N 38°42' W 009°10'0 0.0
2014-Aug-16 15:33N 38°42' W 009°10'0 0.0
2014-Aug-16 14:33N 38°42' W 009°10'0 0.0
2014-Aug-16 13:33N 38°42' W 009°10'0 0.0
2014-Aug-16 12:33N 38°42' W 009°10'0 0.0
2014-Aug-16 11:33N 38°42' W 009°10'0 0.0
2014-Aug-16 10:33N 38°42' W 009°10'0 0.0
2014-Aug-16 09:33N 38°42' W 009°10'0 0.0
2014-Aug-16 08:33N 38°42' W 009°10'0 0.0
2014-Aug-16 07:33N 38°42' W 009°10'0 0.0
2014-Aug-16 06:33N 38°42' W 009°10'0 0.0
2014-Aug-16 05:33N 38°42' W 009°10'0 0.0
2014-Aug-16 04:33N 38°42' W 009°10'0 0.0
2014-Aug-16 03:33N 38°42' W 009°10'0 0.0
2014-Aug-16 02:33N 38°42' W 009°10'0 0.0
2014-Aug-16 01:33N 38°42' W 009°10'0 0.0
2014-Aug-16 00:33N 38°42' W 009°10'0 0.0
2014-Aug-15 23:33N 38°42' W 009°10'0 0.0
2014-Aug-15 22:33N 38°42' W 009°10'0 0.0
2014-Aug-15 21:33N 38°42' W 009°10'0 0.0
2014-Aug-15 20:33N 38°42' W 009°10'0 0.0
2014-Aug-15 19:33N 38°42' W 009°10'0 0.0
2014-Aug-15 18:33N 38°42' W 009°10'0 0.0
2014-Aug-15 17:33N 38°42' W 009°10'0 0.0
2014-Aug-15 16:33N 38°42' W 009°10'0 0.0
2014-Aug-15 15:33N 38°42' W 009°10'0 0.0
2014-Aug-15 14:33N 38°42' W 009°10'0 0.0
2014-Aug-15 13:33N 38°42' W 009°10'0 0.0
2014-Aug-15 12:33N 38°42' W 009°10'0 0.0
2014-Aug-15 11:33N 38°42' W 009°10'0 0.0
2014-Aug-15 10:33N 38°42' W 009°10'0 0.0
2014-Aug-15 09:33N 38°42' W 009°10'0 0.0
2014-Aug-15 08:33N 38°42' W 009°10'0 0.0
2014-Aug-15 07:33N 38°42' W 009°10'0 0.1
2014-Aug-15 06:33N 38°42' W 009°10'5 4.5
2014-Aug-15 05:31N 38°41' W 009°04'5 4.7
2014-Aug-15 04:33N 38°42' W 009°09'0 0.2
2014-Aug-15 03:33N 38°42' W 009°10'0 0.0
2014-Aug-15 02:33N 38°42' W 009°10'0 0.0
2014-Aug-15 01:33N 38°42' W 009°10'0 0.0
2014-Aug-15 00:33N 38°42' W 009°10'0 0.0
2014-Aug-14 23:33N 38°42' W 009°10'0 0.0
2014-Aug-14 22:33N 38°42' W 009°10'0 0.0
2014-Aug-14 21:33N 38°42' W 009°10'0 0.0
2014-Aug-14 20:33N 38°42' W 009°10'0 0.0
2014-Aug-14 19:33N 38°42' W 009°10'0 0.0
2014-Aug-14 18:33N 38°42' W 009°10'0 0.0
2014-Aug-14 17:33N 38°42' W 009°10'0 0.0
2014-Aug-14 16:33N 38°42' W 009°10'2 1.6
2014-Aug-14 15:33N 38°41' W 009°11'0 0.3
2014-Aug-14 14:33N 38°41' W 009°11'2 1.5
2014-Aug-14 13:33N 38°42' W 009°09'0 0.1
2014-Aug-14 12:34N 38°42' W 009°10'0 0.0
2014-Aug-14 11:34N 38°42' W 009°10'0 0.0
2014-Aug-14 10:34N 38°42' W 009°10'0 0.0
2014-Aug-14 09:34N 38°42' W 009°10'0 0.0
2014-Aug-14 08:34N 38°42' W 009°10'0 0.0
2014-Aug-14 07:33N 38°42' W 009°10'0 0.0
2014-Aug-14 06:34N 38°42' W 009°10'2 2.0
2014-Aug-14 05:34N 38°41' W 009°12'1 0.6
2014-Aug-14 03:34N 38°41' W 009°10'1 0.9
2014-Aug-14 02:34N 38°42' W 009°10'0 0.0
2014-Aug-14 01:33N 38°42' W 009°10'0 0.0
2014-Aug-14 00:34N 38°42' W 009°10'0 0.0
2014-Aug-13 23:34N 38°42' W 009°10'0 0.0
2014-Aug-13 22:34N 38°42' W 009°10'0 0.0
2014-Aug-13 21:34N 38°42' W 009°10'0 0.0
2014-Aug-13 20:34N 38°42' W 009°10'0 0.0
2014-Aug-13 19:34N 38°42' W 009°10'0 0.0
2014-Aug-13 18:34N 38°42' W 009°10'0 0.0
2014-Aug-13 17:34N 38°42' W 009°10'0 0.0
2014-Aug-13 16:33N 38°42' W 009°10'0 0.0
2014-Aug-13 15:34N 38°42' W 009°10'0 0.0
2014-Aug-13 14:33N 38°42' W 009°10'0 0.0
2014-Aug-13 13:34N 38°42' W 009°10'0 0.0
2014-Aug-13 12:34N 38°42' W 009°10'0 0.0
2014-Aug-13 11:34N 38°42' W 009°10'0 0.0
2014-Aug-13 10:34N 38°42' W 009°10'0 0.0
2014-Aug-13 09:34N 38°42' W 009°10'0 0.0
2014-Aug-13 08:33N 38°42' W 009°10'0 0.0
2014-Aug-13 07:34N 38°42' W 009°10'1 1.2
2014-Aug-13 06:34N 38°41' W 009°11'0 0.4
2014-Aug-13 05:33N 38°41' W 009°11'1 0.8
2014-Aug-13 04:31N 38°41' W 009°12'2 2.0
2014-Aug-13 03:34N 38°42' W 009°10'0 0.0
2014-Aug-13 02:34N 38°42' W 009°10'0 0.0
2014-Aug-13 01:34N 38°42' W 009°10'0 0.0
2014-Aug-13 00:34N 38°42' W 009°10'0 0.0
2014-Aug-12 23:34N 38°42' W 009°10'0 0.0
2014-Aug-12 22:34N 38°42' W 009°10'0 0.0
2014-Aug-12 21:34N 38°42' W 009°10'0 0.0
2014-Aug-12 20:33N 38°42' W 009°10'0 0.0
2014-Aug-12 19:34N 38°42' W 009°10'0 0.0
2014-Aug-12 18:34N 38°42' W 009°10'0 0.2
2014-Aug-12 17:34N 38°42' W 009°10'0 0.3
2014-Aug-12 16:33N 38°42' W 009°10'1 0.3
2014-Aug-12 14:34N 38°42' W 009°10'0 0.0
2014-Aug-12 13:34N 38°42' W 009°10'0 0.0
2014-Aug-12 12:34N 38°42' W 009°10'0 0.0
2014-Aug-12 11:34N 38°42' W 009°10'0 0.0
2014-Aug-12 10:34N 38°42' W 009°10'0 0.0
2014-Aug-12 09:34N 38°42' W 009°10'0 0.0
2014-Aug-12 08:33N 38°42' W 009°10'2 1.5
2014-Aug-12 07:34N 38°41' W 009°11'1 0.8
2014-Aug-12 06:32N 38°41' W 009°12'2 2.4
2014-Aug-12 05:34N 38°42' W 009°10'0 0.0
2014-Aug-12 04:34N 38°42' W 009°10'0 0.0
2014-Aug-12 03:34N 38°42' W 009°10'0 0.0
2014-Aug-12 02:33N 38°42' W 009°10'0 0.0
2014-Aug-12 01:34N 38°42' W 009°10'0 0.0
2014-Aug-12 00:34N 38°42' W 009°10'0 0.0
2014-Aug-11 23:34N 38°42' W 009°10'0 0.0
2014-Aug-11 22:34N 38°42' W 009°10'0 0.3
2014-Aug-11 21:34N 38°42' W 009°10'0 0.2
2014-Aug-11 20:34N 38°42' W 009°10'0 0.4
2014-Aug-11 19:34N 38°42' W 009°10'0 0.0
2014-Aug-11 18:34N 38°42' W 009°10'0 0.0
2014-Aug-11 17:34N 38°42' W 009°10'0 0.0
2014-Aug-11 16:33N 38°42' W 009°10'0 0.0
2014-Aug-11 15:34N 38°42' W 009°10'0 0.0
2014-Aug-11 14:34N 38°42' W 009°10'0 0.0
2014-Aug-11 13:33N 38°42' W 009°10'0 0.0
2014-Aug-11 12:33N 38°42' W 009°10'0 0.0
2014-Aug-11 11:34N 38°42' W 009°10'0 0.0
2014-Aug-11 10:34N 38°42' W 009°10'0 0.0
2014-Aug-11 09:34N 38°42' W 009°10'0 0.0
2014-Aug-11 08:33N 38°42' W 009°10'0 0.0
2014-Aug-11 07:34N 38°42' W 009°10'1 0.9
2014-Aug-11 06:33N 38°42' W 009°11'1 1.1
2014-Aug-11 05:34N 38°42' W 009°09'0 0.1
2014-Aug-11 04:34N 38°42' W 009°10'0 0.0
2014-Aug-11 03:34N 38°42' W 009°10'0 0.0
2014-Aug-11 02:34N 38°42' W 009°10'0 0.0
2014-Aug-11 01:34N 38°42' W 009°10'0 0.0
2014-Aug-11 00:34N 38°42' W 009°10'0 0.0
2014-Aug-10 23:33N 38°42' W 009°10'0 0.0
2014-Aug-10 22:34N 38°42' W 009°10'0 0.0
2014-Aug-10 21:34N 38°42' W 009°10'0 0.0
2014-Aug-10 20:34N 38°42' W 009°10'0 0.0
2014-Aug-10 19:34N 38°42' W 009°10'0 0.0
2014-Aug-10 18:34N 38°42' W 009°10'0 0.0
2014-Aug-10 17:33N 38°42' W 009°10'0 0.0
2014-Aug-10 16:34N 38°42' W 009°10'  
Track history (hours):
 
Tides and Currents Weather Stations Pressure Air Temp Water Temp Dewpoint Dewpoint Depression Visibility Wind Speed Wind Dir Waves Ship Positions

Svitzer Sines

Last reported at 2014-Aug-20 16:33 UTC. Time now 2014-Aug-20 16:37 UTC.
Position N 38°43' W 009°07'.

Length 26 m.

Type: Tug. MMSI: 263601890.

Date/timePositionNaut miles runAvg speedWind from/ knotsBaromVisibWave heightAir tempDewpointWater temp
2014-Aug-20 16:33N 38°43' W 009°07'2 1.8
2014-Aug-20 15:33N 38°42' W 009°09'0 0.5
2014-Aug-20 14:33N 38°42' W 009°10'0 0.0
2014-Aug-20 13:33N 38°42' W 009°10'0 0.0
2014-Aug-20 12:33N 38°42' W 009°10'0 0.0
2014-Aug-20 11:33N 38°42' W 009°10'0 0.0
2014-Aug-20 10:33N 38°42' W 009°10'0 0.0
2014-Aug-20 09:33N 38°42' W 009°10'0 0.0
2014-Aug-20 08:33N 38°42' W 009°10'0 0.0
2014-Aug-20 07:33N 38°42' W 009°10'0 0.0
2014-Aug-20 06:33N 38°42' W 009°10'0 0.5
2014-Aug-20 05:33N 38°42' W 009°10'0 0.5
2014-Aug-20 04:33N 38°42' W 009°10'0 0.0
2014-Aug-20 03:33N 38°42' W 009°10'0 0.0
2014-Aug-20 02:33N 38°42' W 009°10'0 0.0
2014-Aug-20 01:33N 38°42' W 009°10'0 0.0
2014-Aug-20 00:33N 38°42' W 009°10'0 0.0
2014-Aug-19 23:33N 38°42' W 009°10'0 0.0
2014-Aug-19 22:33N 38°42' W 009°10'0 0.0
2014-Aug-19 21:33N 38°42' W 009°10'0 0.0
2014-Aug-19 20:33N 38°42' W 009°10'0 0.0
2014-Aug-19 19:33N 38°42' W 009°10'0 0.0
2014-Aug-19 18:33N 38°42' W 009°10'0 0.0
2014-Aug-19 17:33N 38°42' W 009°10'0 0.0
2014-Aug-19 16:33N 38°42' W 009°10'0 0.0
2014-Aug-19 15:33N 38°42' W 009°10'0 0.0
2014-Aug-19 14:33N 38°42' W 009°10'0 0.0
2014-Aug-19 13:33N 38°42' W 009°10'0 0.0
2014-Aug-19 12:33N 38°42' W 009°10'0 0.3
2014-Aug-19 11:33N 38°42' W 009°10'3 3.4
2014-Aug-19 10:33N 38°44' W 009°06'0 0.2
2014-Aug-19 08:33N 38°44' W 009°06'4 2.1
2014-Aug-19 06:33N 38°42' W 009°10'0 0.1
2014-Aug-19 05:33N 38°41' W 009°11'1 1.0
2014-Aug-19 04:34N 38°42' W 009°10'0 0.0
2014-Aug-19 03:33N 38°42' W 009°10'0 0.0
2014-Aug-19 02:33N 38°42' W 009°10'0 0.0
2014-Aug-19 01:33N 38°42' W 009°10'0 0.0
2014-Aug-19 00:33N 38°42' W 009°10'0 0.0
2014-Aug-18 23:33N 38°42' W 009°10'0 0.0
2014-Aug-18 22:33N 38°42' W 009°10'3 2.9
2014-Aug-18 21:33N 38°44' W 009°06'3 3.1
2014-Aug-18 20:33N 38°42' W 009°10'0 0.3
2014-Aug-18 19:33N 38°42' W 009°10'0 0.0
2014-Aug-18 18:33N 38°42' W 009°10'0 0.0
2014-Aug-18 17:33N 38°42' W 009°10'0 0.0
2014-Aug-18 16:33N 38°42' W 009°10'0 0.0
2014-Aug-18 15:33N 38°42' W 009°10'0 0.0
2014-Aug-18 14:33N 38°42' W 009°10'0 0.0
2014-Aug-18 13:34N 38°42' W 009°10'0 0.0
2014-Aug-18 12:33N 38°42' W 009°10'0 0.2
2014-Aug-18 11:33N 38°42' W 009°09'2 1.9
2014-Aug-18 10:33N 38°41' W 009°12'1 0.8
2014-Aug-18 09:14N 38°41' W 009°13'1 2.1
2014-Aug-18 08:33N 38°41' W 009°11'0 0.5
2014-Aug-18 07:33N 38°41' W 009°12'2 2.0
2014-Aug-18 06:33N 38°42' W 009°10'0 0.0
2014-Aug-18 05:33N 38°42' W 009°10'0 0.0
2014-Aug-18 04:33N 38°42' W 009°10'0 0.0
2014-Aug-18 03:33N 38°42' W 009°10'0 0.0
2014-Aug-18 02:33N 38°42' W 009°10'0 0.0
2014-Aug-18 01:33N 38°42' W 009°10'0 0.0
2014-Aug-18 00:33N 38°42' W 009°10'0 0.0
2014-Aug-17 18:33N 38°42' W 009°10'0 0.0
2014-Aug-17 17:33N 38°42' W 009°10'0 0.0
2014-Aug-17 16:33N 38°42' W 009°10'0 0.0
2014-Aug-17 15:33N 38°42' W 009°10'0 0.0
2014-Aug-17 14:33N 38°42' W 009°10'0 0.0
2014-Aug-17 13:33N 38°42' W 009°10'0 0.0
2014-Aug-17 12:33N 38°42' W 009°10'0 0.0
2014-Aug-17 11:33N 38°42' W 009°10'0 0.0
2014-Aug-17 10:33N 38°42' W 009°10'0 0.0
2014-Aug-17 09:33N 38°42' W 009°10'0 0.0
2014-Aug-17 08:33N 38°42' W 009°10'0 0.0
2014-Aug-17 07:33N 38°42' W 009°10'0 0.0
2014-Aug-17 06:33N 38°42' W 009°10'0 0.0
2014-Aug-17 05:33N 38°42' W 009°10'0 0.0
2014-Aug-17 04:33N 38°42' W 009°10'0 0.0
2014-Aug-17 03:33N 38°42' W 009°10'0 0.0
2014-Aug-17 02:33N 38°42' W 009°10'0 0.0
2014-Aug-17 01:33N 38°42' W 009°10'0 0.0
2014-Aug-17 00:33N 38°42' W 009°10'2 0.5
2014-Aug-16 20:07N 38°43' W 009°07'1 0.6
2014-Aug-16 19:13N 38°42' W 009°07'2 2.9
2014-Aug-16 18:33N 38°42' W 009°10'0 0.0
2014-Aug-16 17:33N 38°42' W 009°10'0 0.0
2014-Aug-16 16:33N 38°42' W 009°10'0 0.0
2014-Aug-16 15:33N 38°42' W 009°10'0 0.0
2014-Aug-16 14:33N 38°42' W 009°10'0 0.0
2014-Aug-16 13:33N 38°42' W 009°10'0 0.0
2014-Aug-16 12:33N 38°42' W 009°10'0 0.0
2014-Aug-16 11:33N 38°42' W 009°10'0 0.0
2014-Aug-16 10:33N 38°42' W 009°10'0 0.0
2014-Aug-16 09:33N 38°42' W 009°10'0 0.0
2014-Aug-16 08:33N 38°42' W 009°10'0 0.0
2014-Aug-16 07:33N 38°42' W 009°10'0 0.0
2014-Aug-16 06:33N 38°42' W 009°10'0 0.0
2014-Aug-16 05:33N 38°42' W 009°10'0 0.0
2014-Aug-16 04:33N 38°42' W 009°10'0 0.0
2014-Aug-16 03:33N 38°42' W 009°10'0 0.0
2014-Aug-16 02:33N 38°42' W 009°10'0 0.0
2014-Aug-16 01:33N 38°42' W 009°10'0 0.0
2014-Aug-16 00:33N 38°42' W 009°10'0 0.0
2014-Aug-15 23:33N 38°42' W 009°10'0 0.0
2014-Aug-15 22:33N 38°42' W 009°10'0 0.0
2014-Aug-15 21:33N 38°42' W 009°10'0 0.0
2014-Aug-15 20:33N 38°42' W 009°10'0 0.0
2014-Aug-15 19:33N 38°42' W 009°10'0 0.0
2014-Aug-15 18:33N 38°42' W 009°10'0 0.0
2014-Aug-15 17:33N 38°42' W 009°10'0 0.0
2014-Aug-15 16:33N 38°42' W 009°10'0 0.0
2014-Aug-15 15:33N 38°42' W 009°10'0 0.0
2014-Aug-15 14:33N 38°42' W 009°10'0 0.0
2014-Aug-15 13:33N 38°42' W 009°10'0 0.0
2014-Aug-15 12:33N 38°42' W 009°10'0 0.0
2014-Aug-15 11:33N 38°42' W 009°10'0 0.0
2014-Aug-15 10:33N 38°42' W 009°10'0 0.0
2014-Aug-15 09:33N 38°42' W 009°10'0 0.0
2014-Aug-15 08:33N 38°42' W 009°10'0 0.0
2014-Aug-15 07:33N 38°42' W 009°10'0 0.1
2014-Aug-15 06:33N 38°42' W 009°10'5 4.5
2014-Aug-15 05:31N 38°41' W 009°04'5 4.7
2014-Aug-15 04:33N 38°42' W 009°09'0 0.2
2014-Aug-15 03:33N 38°42' W 009°10'0 0.0
2014-Aug-15 02:33N 38°42' W 009°10'0 0.0
2014-Aug-15 01:33N 38°42' W 009°10'0 0.0
2014-Aug-15 00:33N 38°42' W 009°10'0 0.0
2014-Aug-14 23:33N 38°42' W 009°10'0 0.0
2014-Aug-14 22:33N 38°42' W 009°10'0 0.0
2014-Aug-14 21:33N 38°42' W 009°10'0 0.0
2014-Aug-14 20:33N 38°42' W 009°10'0 0.0
2014-Aug-14 19:33N 38°42' W 009°10'0 0.0
2014-Aug-14 18:33N 38°42' W 009°10'0 0.0
2014-Aug-14 17:33N 38°42' W 009°10'0 0.0
2014-Aug-14 16:33N 38°42' W 009°10'2 1.6
2014-Aug-14 15:33N 38°41' W 009°11'0 0.3
2014-Aug-14 14:33N 38°41' W 009°11'2 1.5
2014-Aug-14 13:33N 38°42' W 009°09'0 0.1
2014-Aug-14 12:34N 38°42' W 009°10'0 0.0
2014-Aug-14 11:34N 38°42' W 009°10'0 0.0
2014-Aug-14 10:34N 38°42' W 009°10'0 0.0
2014-Aug-14 09:34N 38°42' W 009°10'0 0.0
2014-Aug-14 08:34N 38°42' W 009°10'0 0.0
2014-Aug-14 07:33N 38°42' W 009°10'0 0.0
2014-Aug-14 06:34N 38°42' W 009°10'2 2.0
2014-Aug-14 05:34N 38°41' W 009°12'1 0.6
2014-Aug-14 03:34N 38°41' W 009°10'1 0.9
2014-Aug-14 02:34N 38°42' W 009°10'0 0.0
2014-Aug-14 01:33N 38°42' W 009°10'0 0.0
2014-Aug-14 00:34N 38°42' W 009°10'0 0.0
2014-Aug-13 23:34N 38°42' W 009°10'0 0.0
2014-Aug-13 22:34N 38°42' W 009°10'0 0.0
2014-Aug-13 21:34N 38°42' W 009°10'0 0.0
2014-Aug-13 20:34N 38°42' W 009°10'0 0.0
2014-Aug-13 19:34N 38°42' W 009°10'0 0.0
2014-Aug-13 18:34N 38°42' W 009°10'0 0.0
2014-Aug-13 17:34N 38°42' W 009°10'0 0.0
2014-Aug-13 16:33N 38°42' W 009°10'0 0.0
2014-Aug-13 15:34N 38°42' W 009°10'0 0.0
2014-Aug-13 14:33N 38°42' W 009°10'0 0.0
2014-Aug-13 13:34N 38°42' W 009°10'0 0.0
2014-Aug-13 12:34N 38°42' W 009°10'0 0.0
2014-Aug-13 11:34N 38°42' W 009°10'0 0.0
2014-Aug-13 10:34N 38°42' W 009°10'0 0.0
2014-Aug-13 09:34N 38°42' W 009°10'0 0.0
2014-Aug-13 08:33N 38°42' W 009°10'0 0.0
2014-Aug-13 07:34N 38°42' W 009°10'1 1.2
2014-Aug-13 06:34N 38°41' W 009°11'0 0.4
2014-Aug-13 05:33N 38°41' W 009°11'1 0.8
2014-Aug-13 04:31N 38°41' W 009°12'2 2.0
2014-Aug-13 03:34N 38°42' W 009°10'0 0.0
2014-Aug-13 02:34N 38°42' W 009°10'0 0.0
2014-Aug-13 01:34N 38°42' W 009°10'0 0.0
2014-Aug-13 00:34N 38°42' W 009°10'0 0.0
2014-Aug-12 23:34N 38°42' W 009°10'0 0.0
2014-Aug-12 22:34N 38°42' W 009°10'0 0.0
2014-Aug-12 21:34N 38°42' W 009°10'0 0.0
2014-Aug-12 20:33N 38°42' W 009°10'0 0.0
2014-Aug-12 19:34N 38°42' W 009°10'0 0.0
2014-Aug-12 18:34N 38°42' W 009°10'0 0.2
2014-Aug-12 17:34N 38°42' W 009°10'0 0.3
2014-Aug-12 16:33N 38°42' W 009°10'1 0.3
2014-Aug-12 14:34N 38°42' W 009°10'0 0.0
2014-Aug-12 13:34N 38°42' W 009°10'0 0.0
2014-Aug-12 12:34N 38°42' W 009°10'0 0.0
2014-Aug-12 11:34N 38°42' W 009°10'0 0.0
2014-Aug-12 10:34N 38°42' W 009°10'0 0.0
2014-Aug-12 09:34N 38°42' W 009°10'0 0.0
2014-Aug-12 08:33N 38°42' W 009°10'2 1.5
2014-Aug-12 07:34N 38°41' W 009°11'1 0.8
2014-Aug-12 06:32N 38°41' W 009°12'2 2.4
2014-Aug-12 05:34N 38°42' W 009°10'0 0.0
2014-Aug-12 04:34N 38°42' W 009°10'0 0.0
2014-Aug-12 03:34N 38°42' W 009°10'0 0.0
2014-Aug-12 02:33N 38°42' W 009°10'0 0.0
2014-Aug-12 01:34N 38°42' W 009°10'0 0.0
2014-Aug-12 00:34N 38°42' W 009°10'0 0.0
2014-Aug-11 23:34N 38°42' W 009°10'0 0.0
2014-Aug-11 22:34N 38°42' W 009°10'0 0.3
2014-Aug-11 21:34N 38°42' W 009°10'0 0.2
2014-Aug-11 20:34N 38°42' W 009°10'0 0.4
2014-Aug-11 19:34N 38°42' W 009°10'0 0.0
2014-Aug-11 18:34N 38°42' W 009°10'0 0.0
2014-Aug-11 17:34N 38°42' W 009°10'0 0.0
2014-Aug-11 16:33N 38°42' W 009°10'0 0.0
2014-Aug-11 15:34N 38°42' W 009°10'0 0.0
2014-Aug-11 14:34N 38°42' W 009°10'0 0.0
2014-Aug-11 13:33N 38°42' W 009°10'0 0.0
2014-Aug-11 12:33N 38°42' W 009°10'0 0.0
2014-Aug-11 11:34N 38°42' W 009°10'0 0.0
2014-Aug-11 10:34N 38°42' W 009°10'0 0.0
2014-Aug-11 09:34N 38°42' W 009°10'0 0.0
2014-Aug-11 08:33N 38°42' W 009°10'0 0.0
2014-Aug-11 07:34N 38°42' W 009°10'1 0.9
2014-Aug-11 06:33N 38°42' W 009°11'1 1.1
2014-Aug-11 05:34N 38°42' W 009°09'0 0.1
2014-Aug-11 04:34N 38°42' W 009°10'0 0.0
2014-Aug-11 03:34N 38°42' W 009°10'0 0.0
2014-Aug-11 02:34N 38°42' W 009°10'0 0.0
2014-Aug-11 01:34N 38°42' W 009°10'0 0.0
2014-Aug-11 00:34N 38°42' W 009°10'0 0.0
2014-Aug-10 23:33N 38°42' W 009°10'0 0.0
2014-Aug-10 22:34N 38°42' W 009°10'0 0.0
2014-Aug-10 21:34N 38°42' W 009°10'0 0.0
2014-Aug-10 20:34N 38°42' W 009°10'0 0.0
2014-Aug-10 19:34N 38°42' W 009°10'0 0.0
2014-Aug-10 18:34N 38°42' W 009°10'0 0.0
2014-Aug-10 17:33N 38°42' W 009°10'0 0.0
2014-Aug-10 16:34N 38°42' W 009°10'  

Dump ship's entire track history